This is the latest recevied weather packets stored in our database for station/object JH5EWP-13. If no packets are shown the sender has not sent any weather packets the latest 10 day(s).
| Time | Temp. | Humidity | Pressure | Rain* | Wind** | Luminosity | Snow |
|---|---|---|---|---|---|---|---|
| 1777618424 | 14.44° C | 59% | 998.1 hPa | 1.78 mm | - | - | - |
| 1777617526 | 14.44° C | 60% | 997.9 hPa | 4.06 mm | - | - | - |
| 1777616626 | 15° C | 56% | 997.9 hPa | 4.06 mm | - | - | - |
| 1777615726 | 15° C | 54% | 997.8 hPa | 4.06 mm | - | - | - |
| 1777614826 | 15° C | 52% | 997.3 hPa | 2.29 mm | - | - | - |
| 1777613926 | 15.56° C | 54% | 997.2 hPa | 0 mm | - | - | - |
| 1777613026 | 15.56° C | 56% | 997.3 hPa | 0 mm | - | - | - |
| 1777612126 | 16.11° C | 51% | 996.9 hPa | 0 mm | - | - | - |
| 1777611225 | 16.67° C | 50% | 997.1 hPa | 0 mm | - | - | - |
| 1777610325 | 16.67° C | 49% | 997.1 hPa | 0 mm | - | - | - |
| 1777609425 | 16.67° C | 51% | 997.2 hPa | 0 mm | - | - | - |
| 1777608525 | 17.78° C | 43% | 997.1 hPa | 0 mm | - | - | - |
| 1777607625 | 17.22° C | 51% | 997.1 hPa | 0 mm | - | - | - |
| 1777606725 | 17.78° C | 59% | 997.1 hPa | 0 mm | - | - | - |
| 1777606157 | 17.22° C | 65% | 997 hPa | 0 mm | - | - | - |
| 1777605257 | 16.67° C | 65% | 997.2 hPa | 10.92 mm | - | - | - |
| 1777604357 | 17.78° C | 61% | 997.1 hPa | 10.92 mm | - | - | - |
| 1777603457 | 17.22° C | 65% | 997.7 hPa | 10.92 mm | - | - | - |
| 1777602556 | 16.67° C | 70% | 997.3 hPa | 10.92 mm | - | - | - |
| 1777601656 | 16.11° C | 72% | 997.5 hPa | 0.25 mm | - | - | - |
| 1777600756 | 15.56° C | 74% | 997.5 hPa | 0.25 mm | - | - | - |
| 1777599855 | 15° C | 76% | 997.4 hPa | 0.25 mm | - | - | - |
| 1777598956 | 15° C | 77% | 997.6 hPa | 0.25 mm | - | - | - |
| 1777598057 | 15° C | 75% | 997.5 hPa | 0 mm | - | - | - |
| 1777597157 | 15.56° C | 74% | 997.8 hPa | 0 mm | - | - | - |
* Rain latest hour (hover to see other rain measurements)
** Current wind speed in m/s (hover to see current wind gust speed)